sensor_id;sensor_type;location;lat;lon;timestamp;P1;durP1;ratioP1;P2;durP2;ratioP2
77726;SDS011;66894;51.570;7.000;2023-02-28T16:19:57;1.80;;;0.70;;
77726;SDS011;66894;51.570;7.000;2023-02-28T16:22:24;2.38;;;0.60;;
77726;SDS011;66894;51.570;7.000;2023-02-28T16:24:50;2.20;;;0.50;;
77726;SDS011;66894;51.570;7.000;2023-02-28T16:27:20;1.00;;;0.38;;
77726;SDS011;66894;51.570;7.000;2023-02-28T16:30:01;4.13;;;1.00;;
77726;SDS011;66894;51.570;7.000;2023-02-28T17:07:52;5.57;;;1.40;;
77726;SDS011;66894;51.570;7.000;2023-02-28T17:10:22;4.30;;;1.50;;
77726;SDS011;66894;51.570;7.000;2023-02-28T17:12:52;4.40;;;1.55;;
77726;SDS011;66894;51.570;7.000;2023-02-28T17:15:23;46.45;;;4.65;;
77726;SDS011;66894;51.570;7.000;2023-02-28T17:17:48;9.60;;;2.53;;
77726;SDS011;66894;51.570;7.000;2023-02-28T17:20:16;5.15;;;1.50;;
77726;SDS011;66894;51.570;7.000;2023-02-28T17:22:47;3.00;;;1.52;;
77726;SDS011;66894;51.570;7.000;2023-02-28T18:20:39;3.40;;;1.63;;
77726;SDS011;66894;51.570;7.000;2023-02-28T18:23:05;4.85;;;1.58;;
77726;SDS011;66894;51.570;7.000;2023-02-28T18:25:31;7.70;;;2.30;;
77726;SDS011;66894;51.570;7.000;2023-02-28T18:27:56;4.47;;;1.80;;
77726;SDS011;66894;51.570;7.000;2023-02-28T18:30:26;2.72;;;1.80;;
77726;SDS011;66894;51.570;7.000;2023-02-28T18:32:57;5.72;;;2.40;;
77726;SDS011;66894;51.570;7.000;2023-02-28T18:35:26;4.78;;;2.10;;
77726;SDS011;66894;51.570;7.000;2023-02-28T18:38:02;2.92;;;1.80;;
77726;SDS011;66894;51.570;7.000;2023-02-28T18:40:54;3.53;;;1.60;;
77726;SDS011;66894;51.570;7.000;2023-02-28T18:43:29;6.80;;;2.60;;
77726;SDS011;66894;51.570;7.000;2023-02-28T18:46:02;7.88;;;2.95;;
77726;SDS011;66894;51.570;7.000;2023-02-28T18:48:31;4.50;;;2.47;;
77726;SDS011;66894;51.570;7.000;2023-02-28T18:50:56;9.32;;;2.88;;
77726;SDS011;66894;51.570;7.000;2023-02-28T18:53:22;5.50;;;2.63;;
77726;SDS011;66894;51.570;7.000;2023-02-28T18:55:48;5.78;;;2.50;;
77726;SDS011;66894;51.570;7.000;2023-02-28T18:58:13;5.07;;;2.40;;
77726;SDS011;66894;51.570;7.000;2023-02-28T19:00:39;4.75;;;1.92;;
77726;SDS011;66894;51.570;7.000;2023-02-28T19:03:05;5.05;;;2.00;;
77726;SDS011;66894;51.570;7.000;2023-02-28T19:05:31;5.97;;;2.88;;
77726;SDS011;66894;51.570;7.000;2023-02-28T19:07:59;6.35;;;2.35;;
77726;SDS011;66894;51.570;7.000;2023-02-28T19:10:26;6.03;;;3.00;;
77726;SDS011;66894;51.570;7.000;2023-02-28T19:12:52;3.55;;;1.98;;
77726;SDS011;66894;51.570;7.000;2023-02-28T19:15:17;6.55;;;1.70;;
77726;SDS011;66894;51.570;7.000;2023-02-28T19:17:44;6.93;;;2.75;;
77726;SDS011;66894;51.570;7.000;2023-02-28T19:20:10;3.67;;;2.10;;
77726;SDS011;66894;51.570;7.000;2023-02-28T19:22:37;3.33;;;1.70;;
77726;SDS011;66894;51.570;7.000;2023-02-28T19:25:03;6.07;;;2.55;;
77726;SDS011;66894;51.570;7.000;2023-02-28T19:27:31;3.50;;;1.80;;
77726;SDS011;66894;51.570;7.000;2023-02-28T19:29:59;3.00;;;1.77;;
77726;SDS011;66894;51.570;7.000;2023-02-28T19:32:25;2.47;;;1.33;;
77726;SDS011;66894;51.570;7.000;2023-02-28T19:34:51;5.80;;;2.10;;
77726;SDS011;66894;51.570;7.000;2023-02-28T19:37:16;5.47;;;3.08;;
77726;SDS011;66894;51.570;7.000;2023-02-28T19:39:43;5.40;;;2.75;;
77726;SDS011;66894;51.570;7.000;2023-02-28T19:42:10;9.75;;;4.18;;
77726;SDS011;66894;51.570;7.000;2023-02-28T19:44:42;7.68;;;3.20;;
77726;SDS011;66894;51.570;7.000;2023-02-28T19:47:11;5.20;;;2.72;;
77726;SDS011;66894;51.570;7.000;2023-02-28T19:49:37;5.93;;;2.88;;
77726;SDS011;66894;51.570;7.000;2023-02-28T19:52:04;4.53;;;2.90;;
77726;SDS011;66894;51.570;7.000;2023-02-28T19:54:30;5.18;;;2.70;;
77726;SDS011;66894;51.570;7.000;2023-02-28T19:56:59;10.70;;;3.40;;
77726;SDS011;66894;51.570;7.000;2023-02-28T19:59:26;6.45;;;3.15;;
77726;SDS011;66894;51.570;7.000;2023-02-28T20:01:52;8.00;;;3.38;;
77726;SDS011;66894;51.570;7.000;2023-02-28T20:04:24;6.68;;;2.50;;
77726;SDS011;66894;51.570;7.000;2023-02-28T20:06:52;5.43;;;2.38;;
77726;SDS011;66894;51.570;7.000;2023-02-28T20:09:18;7.30;;;3.92;;
77726;SDS011;66894;51.570;7.000;2023-02-28T20:11:44;6.38;;;2.80;;
77726;SDS011;66894;51.570;7.000;2023-02-28T20:14:11;6.30;;;3.60;;
77726;SDS011;66894;51.570;7.000;2023-02-28T20:16:39;3.75;;;2.20;;
77726;SDS011;66894;51.570;7.000;2023-02-28T20:19:05;6.85;;;3.50;;
77726;SDS011;66894;51.570;7.000;2023-02-28T20:21:31;11.05;;;4.28;;
77726;SDS011;66894;51.570;7.000;2023-02-28T20:23:56;6.13;;;3.53;;
77726;SDS011;66894;51.570;7.000;2023-02-28T20:26:22;5.93;;;2.25;;
77726;SDS011;66894;51.570;7.000;2023-02-28T20:28:48;5.35;;;3.22;;
77726;SDS011;66894;51.570;7.000;2023-02-28T20:31:16;7.28;;;3.38;;
77726;SDS011;66894;51.570;7.000;2023-02-28T20:33:47;6.40;;;3.80;;
77726;SDS011;66894;51.570;7.000;2023-02-28T20:36:15;5.65;;;2.63;;
77726;SDS011;66894;51.570;7.000;2023-02-28T20:38:47;8.15;;;3.70;;
77726;SDS011;66894;51.570;7.000;2023-02-28T20:41:15;4.43;;;2.80;;
77726;SDS011;66894;51.570;7.000;2023-02-28T20:43:41;6.70;;;3.45;;
77726;SDS011;66894;51.570;7.000;2023-02-28T20:46:08;6.68;;;3.53;;
77726;SDS011;66894;51.570;7.000;2023-02-28T20:48:34;10.00;;;3.40;;
77726;SDS011;66894;51.570;7.000;2023-02-28T20:51:01;10.65;;;3.92;;
77726;SDS011;66894;51.570;7.000;2023-02-28T20:53:29;6.13;;;3.30;;
77726;SDS011;66894;51.570;7.000;2023-02-28T20:58:28;8.02;;;3.97;;
77726;SDS011;66894;51.570;7.000;2023-02-28T21:01:00;7.65;;;3.40;;
77726;SDS011;66894;51.570;7.000;2023-02-28T21:03:43;5.63;;;2.97;;
77726;SDS011;66894;51.570;7.000;2023-02-28T21:06:17;7.28;;;3.50;;
77726;SDS011;66894;51.570;7.000;2023-02-28T21:08:47;4.70;;;3.35;;
77726;SDS011;66894;51.570;7.000;2023-02-28T21:11:15;9.07;;;3.95;;
77726;SDS011;66894;51.570;7.000;2023-02-28T21:13:54;9.65;;;5.13;;
77726;SDS011;66894;51.570;7.000;2023-02-28T21:16:24;12.90;;;5.00;;
77726;SDS011;66894;51.570;7.000;2023-02-28T21:18:53;11.20;;;4.35;;
77726;SDS011;66894;51.570;7.000;2023-02-28T21:21:21;7.90;;;4.35;;
77726;SDS011;66894;51.570;7.000;2023-02-28T21:23:49;10.00;;;4.43;;
77726;SDS011;66894;51.570;7.000;2023-02-28T21:26:17;8.63;;;3.72;;
77726;SDS011;66894;51.570;7.000;2023-02-28T21:28:50;12.38;;;5.45;;
77726;SDS011;66894;51.570;7.000;2023-02-28T21:31:25;8.23;;;4.18;;
77726;SDS011;66894;51.570;7.000;2023-02-28T21:33:55;10.45;;;4.88;;
77726;SDS011;66894;51.570;7.000;2023-02-28T21:36:24;8.90;;;5.22;;
77726;SDS011;66894;51.570;7.000;2023-02-28T21:38:57;8.80;;;5.03;;
77726;SDS011;66894;51.570;7.000;2023-02-28T21:41:29;6.55;;;3.97;;
77726;SDS011;66894;51.570;7.000;2023-02-28T21:43:56;8.35;;;5.43;;
77726;SDS011;66894;51.570;7.000;2023-02-28T21:46:22;11.43;;;3.85;;
77726;SDS011;66894;51.570;7.000;2023-02-28T21:48:53;5.40;;;3.40;;
77726;SDS011;66894;51.570;7.000;2023-02-28T21:51:21;17.77;;;5.65;;
77726;SDS011;66894;51.570;7.000;2023-02-28T21:53:58;11.20;;;5.15;;
77726;SDS011;66894;51.570;7.000;2023-02-28T21:56:26;11.43;;;5.50;;
77726;SDS011;66894;51.570;7.000;2023-02-28T21:58:59;11.20;;;4.70;;
77726;SDS011;66894;51.570;7.000;2023-02-28T22:01:26;9.13;;;4.30;;
77726;SDS011;66894;51.570;7.000;2023-02-28T22:04:00;11.40;;;4.90;;
77726;SDS011;66894;51.570;7.000;2023-02-28T22:06:29;10.63;;;5.30;;
77726;SDS011;66894;51.570;7.000;2023-02-28T22:09:00;9.80;;;4.47;;
77726;SDS011;66894;51.570;7.000;2023-02-28T22:11:31;10.35;;;4.68;;
77726;SDS011;66894;51.570;7.000;2023-02-28T22:13:59;12.40;;;6.28;;
77726;SDS011;66894;51.570;7.000;2023-02-28T22:16:26;9.82;;;4.82;;
77726;SDS011;66894;51.570;7.000;2023-02-28T22:18:55;13.30;;;5.35;;
77726;SDS011;66894;51.570;7.000;2023-02-28T22:21:22;9.88;;;5.78;;
77726;SDS011;66894;51.570;7.000;2023-02-28T22:23:49;13.10;;;6.88;;
77726;SDS011;66894;51.570;7.000;2023-02-28T22:26:16;10.68;;;4.82;;
77726;SDS011;66894;51.570;7.000;2023-02-28T22:28:46;10.48;;;5.65;;
77726;SDS011;66894;51.570;7.000;2023-02-28T22:34:03;19.75;;;7.32;;
77726;SDS011;66894;51.570;7.000;2023-02-28T22:36:32;15.90;;;7.78;;
77726;SDS011;66894;51.570;7.000;2023-02-28T22:38:59;12.98;;;7.88;;
77726;SDS011;66894;51.570;7.000;2023-02-28T22:41:26;16.45;;;6.60;;
77726;SDS011;66894;51.570;7.000;2023-02-28T22:43:56;15.35;;;7.70;;
77726;SDS011;66894;51.570;7.000;2023-02-28T22:46:28;11.10;;;6.95;;
77726;SDS011;66894;51.570;7.000;2023-02-28T22:48:57;14.68;;;6.43;;
77726;SDS011;66894;51.570;7.000;2023-02-28T22:51:26;16.90;;;8.20;;
77726;SDS011;66894;51.570;7.000;2023-02-28T22:53:52;10.25;;;5.78;;
77726;SDS011;66894;51.570;7.000;2023-02-28T22:56:21;14.00;;;6.50;;
77726;SDS011;66894;51.570;7.000;2023-02-28T22:58:51;17.60;;;9.18;;
77726;SDS011;66894;51.570;7.000;2023-02-28T23:01:24;12.05;;;6.25;;
77726;SDS011;66894;51.570;7.000;2023-02-28T23:03:55;13.32;;;6.75;;
77726;SDS011;66894;51.570;7.000;2023-02-28T23:08:53;15.90;;;7.10;;
77726;SDS011;66894;51.570;7.000;2023-02-28T23:11:25;18.90;;;9.02;;
77726;SDS011;66894;51.570;7.000;2023-02-28T23:13:59;17.13;;;9.30;;
77726;SDS011;66894;51.570;7.000;2023-02-28T23:19:02;21.42;;;9.45;;
77726;SDS011;66894;51.570;7.000;2023-02-28T23:21:33;17.83;;;8.68;;
77726;SDS011;66894;51.570;7.000;2023-02-28T23:24:00;27.77;;;14.35;;
77726;SDS011;66894;51.570;7.000;2023-02-28T23:26:31;27.02;;;13.55;;
77726;SDS011;66894;51.570;7.000;2023-02-28T23:28:57;25.67;;;11.25;;
77726;SDS011;66894;51.570;7.000;2023-02-28T23:31:22;14.50;;;8.73;;
77726;SDS011;66894;51.570;7.000;2023-02-28T23:33:48;12.55;;;7.60;;
77726;SDS011;66894;51.570;7.000;2023-02-28T23:36:15;17.73;;;8.70;;
77726;SDS011;66894;51.570;7.000;2023-02-28T23:38:44;25.10;;;11.10;;
77726;SDS011;66894;51.570;7.000;2023-02-28T23:41:13;30.30;;;14.00;;
77726;SDS011;66894;51.570;7.000;2023-02-28T23:43:40;20.83;;;11.68;;
77726;SDS011;66894;51.570;7.000;2023-02-28T23:46:07;27.20;;;10.90;;
77726;SDS011;66894;51.570;7.000;2023-02-28T23:48:35;19.27;;;11.05;;
77726;SDS011;66894;51.570;7.000;2023-02-28T23:51:09;19.92;;;9.55;;
77726;SDS011;66894;51.570;7.000;2023-02-28T23:53:41;24.55;;;13.00;;
77726;SDS011;66894;51.570;7.000;2023-02-28T23:56:12;19.25;;;8.80;;
77726;SDS011;66894;51.570;7.000;2023-02-28T23:58:43;22.98;;;10.15;;
